sensor_id;sensor_type;location;lat;lon;timestamp;temperature;humidity
8988;DHT22;4529;51.360;12.474;2023-03-17T00:04:39;4.80;99.90
8988;DHT22;4529;51.360;12.474;2023-03-17T00:09:44;4.80;99.90
8988;DHT22;4529;51.360;12.474;2023-03-17T00:14:48;4.80;99.90
8988;DHT22;4529;51.360;12.474;2023-03-17T00:19:52;5.00;99.90
8988;DHT22;4529;51.360;12.474;2023-03-17T00:24:56;5.10;99.90
8988;DHT22;4529;51.360;12.474;2023-03-17T00:30:00;5.10;99.90
8988;DHT22;4529;51.360;12.474;2023-03-17T00:35:08;5.10;99.90
8988;DHT22;4529;51.360;12.474;2023-03-17T00:40:19;5.20;99.90
8988;DHT22;4529;51.360;12.474;2023-03-17T00:45:21;5.20;99.90
8988;DHT22;4529;51.360;12.474;2023-03-17T00:50:26;5.20;99.90
8988;DHT22;4529;51.360;12.474;2023-03-17T00:55:29;5.20;99.90
8988;DHT22;4529;51.360;12.474;2023-03-17T01:00:33;5.10;99.90
8988;DHT22;4529;51.360;12.474;2023-03-17T01:05:37;5.10;99.90
8988;DHT22;4529;51.360;12.474;2023-03-17T01:10:41;5.10;99.90
8988;DHT22;4529;51.360;12.474;2023-03-17T01:15:45;5.10;99.90
8988;DHT22;4529;51.360;12.474;2023-03-17T01:20:48;5.10;99.90
8988;DHT22;4529;51.360;12.474;2023-03-17T01:25:51;5.10;99.90
8988;DHT22;4529;51.360;12.474;2023-03-17T01:30:55;4.80;99.90
8988;DHT22;4529;51.360;12.474;2023-03-17T01:35:59;4.70;99.90
8988;DHT22;4529;51.360;12.474;2023-03-17T01:41:03;4.70;99.90
8988;DHT22;4529;51.360;12.474;2023-03-17T01:51:32;4.80;99.90
8988;DHT22;4529;51.360;12.474;2023-03-17T01:56:35;4.70;99.90
8988;DHT22;4529;51.360;12.474;2023-03-17T02:01:40;4.80;99.90
8988;DHT22;4529;51.360;12.474;2023-03-17T02:06:41;4.70;99.90
8988;DHT22;4529;51.360;12.474;2023-03-17T02:11:48;4.60;99.90
8988;DHT22;4529;51.360;12.474;2023-03-17T02:16:51;4.60;99.90
8988;DHT22;4529;51.360;12.474;2023-03-17T02:21:56;4.60;99.90
8988;DHT22;4529;51.360;12.474;2023-03-17T02:27:13;4.50;99.90
8988;DHT22;4529;51.360;12.474;2023-03-17T02:32:15;4.50;99.90
8988;DHT22;4529;51.360;12.474;2023-03-17T02:37:18;4.50;99.90
8988;DHT22;4529;51.360;12.474;2023-03-17T02:42:25;4.40;99.90
8988;DHT22;4529;51.360;12.474;2023-03-17T02:47:28;4.40;99.90
8988;DHT22;4529;51.360;12.474;2023-03-17T02:52:33;4.70;99.90
8988;DHT22;4529;51.360;12.474;2023-03-17T02:57:37;4.70;99.90
8988;DHT22;4529;51.360;12.474;2023-03-17T03:02:40;4.70;99.90
8988;DHT22;4529;51.360;12.474;2023-03-17T03:07:44;4.70;99.90
8988;DHT22;4529;51.360;12.474;2023-03-17T03:12:47;4.80;99.90
8988;DHT22;4529;51.360;12.474;2023-03-17T03:17:51;4.70;99.90
8988;DHT22;4529;51.360;12.474;2023-03-17T03:22:54;4.70;99.90
8988;DHT22;4529;51.360;12.474;2023-03-17T03:27:58;4.50;99.90
8988;DHT22;4529;51.360;12.474;2023-03-17T03:33:02;4.40;99.90
8988;DHT22;4529;51.360;12.474;2023-03-17T03:38:06;4.40;99.90
8988;DHT22;4529;51.360;12.474;2023-03-17T03:43:10;4.20;99.90
8988;DHT22;4529;51.360;12.474;2023-03-17T03:48:13;4.20;99.90
8988;DHT22;4529;51.360;12.474;2023-03-17T03:53:17;4.20;99.90
8988;DHT22;4529;51.360;12.474;2023-03-17T03:58:22;4.10;99.90
8988;DHT22;4529;51.360;12.474;2023-03-17T04:03:26;4.20;99.90
8988;DHT22;4529;51.360;12.474;2023-03-17T04:08:29;4.20;99.90
8988;DHT22;4529;51.360;12.474;2023-03-17T04:13:33;4.10;99.90
8988;DHT22;4529;51.360;12.474;2023-03-17T04:18:36;4.10;99.90
8988;DHT22;4529;51.360;12.474;2023-03-17T04:23:40;4.00;99.90
8988;DHT22;4529;51.360;12.474;2023-03-17T04:28:44;4.10;99.90
8988;DHT22;4529;51.360;12.474;2023-03-17T04:33:48;4.10;99.90
8988;DHT22;4529;51.360;12.474;2023-03-17T04:38:53;4.10;99.90
8988;DHT22;4529;51.360;12.474;2023-03-17T04:44:00;4.10;99.90
8988;DHT22;4529;51.360;12.474;2023-03-17T04:49:03;4.10;99.90
8988;DHT22;4529;51.360;12.474;2023-03-17T04:54:07;4.00;99.90
8988;DHT22;4529;51.360;12.474;2023-03-17T04:59:12;3.70;99.90
8988;DHT22;4529;51.360;12.474;2023-03-17T05:04:15;3.70;99.90
8988;DHT22;4529;51.360;12.474;2023-03-17T05:09:19;3.80;99.90
8988;DHT22;4529;51.360;12.474;2023-03-17T05:14:23;3.80;99.90
8988;DHT22;4529;51.360;12.474;2023-03-17T05:19:27;3.70;99.90
8988;DHT22;4529;51.360;12.474;2023-03-17T05:24:32;3.60;99.90
8988;DHT22;4529;51.360;12.474;2023-03-17T05:29:35;3.60;99.90
8988;DHT22;4529;51.360;12.474;2023-03-17T05:34:39;3.60;99.90
8988;DHT22;4529;51.360;12.474;2023-03-17T05:39:43;3.80;99.90
8988;DHT22;4529;51.360;12.474;2023-03-17T05:44:47;3.80;99.90
8988;DHT22;4529;51.360;12.474;2023-03-17T05:49:52;3.70;99.90
8988;DHT22;4529;51.360;12.474;2023-03-17T05:54:55;3.70;99.90
8988;DHT22;4529;51.360;12.474;2023-03-17T05:59:59;3.90;99.90
8988;DHT22;4529;51.360;12.474;2023-03-17T06:05:03;4.00;99.90
8988;DHT22;4529;51.360;12.474;2023-03-17T06:10:07;3.90;99.90
8988;DHT22;4529;51.360;12.474;2023-03-17T06:15:11;4.00;99.90
8988;DHT22;4529;51.360;12.474;2023-03-17T06:20:15;4.30;99.90
8988;DHT22;4529;51.360;12.474;2023-03-17T06:25:20;4.50;99.90
8988;DHT22;4529;51.360;12.474;2023-03-17T06:30:23;4.40;99.90
8988;DHT22;4529;51.360;12.474;2023-03-17T06:35:27;4.70;99.90
8988;DHT22;4529;51.360;12.474;2023-03-17T06:40:36;5.30;99.90
8988;DHT22;4529;51.360;12.474;2023-03-17T06:45:39;5.30;99.90
8988;DHT22;4529;51.360;12.474;2023-03-17T06:50:44;5.80;99.90
8988;DHT22;4529;51.360;12.474;2023-03-17T06:55:47;6.00;99.90
8988;DHT22;4529;51.360;12.474;2023-03-17T07:00:52;6.30;99.90
8988;DHT22;4529;51.360;12.474;2023-03-17T07:05:56;6.60;99.90
8988;DHT22;4529;51.360;12.474;2023-03-17T07:10:59;6.50;99.90
8988;DHT22;4529;51.360;12.474;2023-03-17T07:16:03;6.80;99.90
8988;DHT22;4529;51.360;12.474;2023-03-17T07:21:07;7.00;99.90
8988;DHT22;4529;51.360;12.474;2023-03-17T07:26:11;7.20;99.90
8988;DHT22;4529;51.360;12.474;2023-03-17T07:31:15;7.40;99.90
8988;DHT22;4529;51.360;12.474;2023-03-17T07:36:19;7.70;99.90
8988;DHT22;4529;51.360;12.474;2023-03-17T07:41:23;7.70;99.90
8988;DHT22;4529;51.360;12.474;2023-03-17T07:46:26;8.00;99.90
8988;DHT22;4529;51.360;12.474;2023-03-17T07:51:30;8.60;99.90
8988;DHT22;4529;51.360;12.474;2023-03-17T07:56:34;8.70;99.90
8988;DHT22;4529;51.360;12.474;2023-03-17T08:01:38;9.00;99.90
8988;DHT22;4529;51.360;12.474;2023-03-17T08:06:43;9.20;99.90
8988;DHT22;4529;51.360;12.474;2023-03-17T08:11:53;9.50;99.90
8988;DHT22;4529;51.360;12.474;2023-03-17T08:16:56;9.50;99.90
8988;DHT22;4529;51.360;12.474;2023-03-17T08:22:00;10.10;99.90
8988;DHT22;4529;51.360;12.474;2023-03-17T08:27:05;10.30;99.90
8988;DHT22;4529;51.360;12.474;2023-03-17T08:32:08;10.30;99.90
8988;DHT22;4529;51.360;12.474;2023-03-17T08:37:12;10.70;99.90
8988;DHT22;4529;51.360;12.474;2023-03-17T08:42:16;10.80;99.90
8988;DHT22;4529;51.360;12.474;2023-03-17T08:47:21;10.90;99.90
8988;DHT22;4529;51.360;12.474;2023-03-17T08:52:25;11.10;99.90
8988;DHT22;4529;51.360;12.474;2023-03-17T08:57:29;11.20;99.90
8988;DHT22;4529;51.360;12.474;2023-03-17T09:02:33;11.30;99.90
8988;DHT22;4529;51.360;12.474;2023-03-17T09:07:37;11.50;99.90
8988;DHT22;4529;51.360;12.474;2023-03-17T09:12:41;11.70;99.90
8988;DHT22;4529;51.360;12.474;2023-03-17T09:17:45;11.70;99.90
8988;DHT22;4529;51.360;12.474;2023-03-17T09:22:49;11.80;99.90
8988;DHT22;4529;51.360;12.474;2023-03-17T09:27:54;12.00;99.90
8988;DHT22;4529;51.360;12.474;2023-03-17T09:32:58;12.10;99.90
8988;DHT22;4529;51.360;12.474;2023-03-17T09:38:02;12.30;98.10
8988;DHT22;4529;51.360;12.474;2023-03-17T09:43:47;12.50;97.50
8988;DHT22;4529;51.360;12.474;2023-03-17T09:48:52;12.50;97.20
8988;DHT22;4529;51.360;12.474;2023-03-17T09:53:59;12.70;97.20
8988;DHT22;4529;51.360;12.474;2023-03-17T09:59:06;12.90;95.40
8988;DHT22;4529;51.360;12.474;2023-03-17T10:04:09;12.90;95.40
8988;DHT22;4529;51.360;12.474;2023-03-17T10:09:39;13.20;94.20
8988;DHT22;4529;51.360;12.474;2023-03-17T10:14:56;13.40;92.70
8988;DHT22;4529;51.360;12.474;2023-03-17T10:25:05;13.50;91.30
8988;DHT22;4529;51.360;12.474;2023-03-17T10:30:15;13.70;91.50
8988;DHT22;4529;51.360;12.474;2023-03-17T10:35:18;13.80;91.20
8988;DHT22;4529;51.360;12.474;2023-03-17T10:40:26;13.90;90.10
8988;DHT22;4529;51.360;12.474;2023-03-17T10:45:30;13.90;90.10
8988;DHT22;4529;51.360;12.474;2023-03-17T10:50:33;13.90;91.70
8988;DHT22;4529;51.360;12.474;2023-03-17T10:55:46;13.80;90.50
8988;DHT22;4529;51.360;12.474;2023-03-17T11:06:01;13.70;95.10
8988;DHT22;4529;51.360;12.474;2023-03-17T11:11:06;13.70;94.20
8988;DHT22;4529;51.360;12.474;2023-03-17T11:16:23;13.70;94.20
8988;DHT22;4529;51.360;12.474;2023-03-17T11:21:31;13.80;96.80
8988;DHT22;4529;51.360;12.474;2023-03-17T11:26:56;13.70;96.70
8988;DHT22;4529;51.360;12.474;2023-03-17T11:32:08;13.70;95.80
8988;DHT22;4529;51.360;12.474;2023-03-17T11:43:28;13.80;95.60
8988;DHT22;4529;51.360;12.474;2023-03-17T11:48:45;13.80;95.80
8988;DHT22;4529;51.360;12.474;2023-03-17T12:04:36;14.20;95.80
8988;DHT22;4529;51.360;12.474;2023-03-17T12:09:49;14.30;96.70
8988;DHT22;4529;51.360;12.474;2023-03-17T12:14:49;14.30;94.80
8988;DHT22;4529;51.360;12.474;2023-03-17T12:20:17;14.30;94.90
8988;DHT22;4529;51.360;12.474;2023-03-17T12:25:26;14.30;95.60
8988;DHT22;4529;51.360;12.474;2023-03-17T12:35:45;14.40;95.60
8988;DHT22;4529;51.360;12.474;2023-03-17T12:51:58;14.50;95.50
8988;DHT22;4529;51.360;12.474;2023-03-17T12:57:16;14.60;96.10
8988;DHT22;4529;51.360;12.474;2023-03-17T13:07:40;14.70;95.50
8988;DHT22;4529;51.360;12.474;2023-03-17T13:18:09;14.70;96.60
8988;DHT22;4529;51.360;12.474;2023-03-17T13:33:21;14.70;96.30
8988;DHT22;4529;51.360;12.474;2023-03-17T13:44:16;14.80;95.00
8988;DHT22;4529;51.360;12.474;2023-03-17T14:05:05;14.80;97.10
8988;DHT22;4529;51.360;12.474;2023-03-17T14:10:06;14.80;96.40
8988;DHT22;4529;51.360;12.474;2023-03-17T14:15:29;14.80;96.20
8988;DHT22;4529;51.360;12.474;2023-03-17T14:20:30;14.80;98.40
8988;DHT22;4529;51.360;12.474;2023-03-17T14:25:37;14.70;97.70
8988;DHT22;4529;51.360;12.474;2023-03-17T14:30:40;14.70;97.20
8988;DHT22;4529;51.360;12.474;2023-03-17T14:41:58;14.70;96.10
8988;DHT22;4529;51.360;12.474;2023-03-17T14:46:59;14.70;97.20
8988;DHT22;4529;51.360;12.474;2023-03-17T14:52:20;14.60;97.00
8988;DHT22;4529;51.360;12.474;2023-03-17T14:57:26;14.70;96.70
8988;DHT22;4529;51.360;12.474;2023-03-17T15:02:33;14.70;96.40
8988;DHT22;4529;51.360;12.474;2023-03-17T15:07:40;14.60;96.40
8988;DHT22;4529;51.360;12.474;2023-03-17T15:12:47;14.60;96.30
8988;DHT22;4529;51.360;12.474;2023-03-17T15:17:55;14.50;96.80
8988;DHT22;4529;51.360;12.474;2023-03-17T15:23:02;14.50;96.70
8988;DHT22;4529;51.360;12.474;2023-03-17T15:28:12;14.40;97.60
8988;DHT22;4529;51.360;12.474;2023-03-17T15:33:36;14.40;97.50
8988;DHT22;4529;51.360;12.474;2023-03-17T15:38:40;14.40;97.10
8988;DHT22;4529;51.360;12.474;2023-03-17T15:43:47;14.40;98.30
8988;DHT22;4529;51.360;12.474;2023-03-17T15:48:50;14.30;98.30
8988;DHT22;4529;51.360;12.474;2023-03-17T15:53:54;14.30;97.70
8988;DHT22;4529;51.360;12.474;2023-03-17T15:58:57;14.20;97.90
8988;DHT22;4529;51.360;12.474;2023-03-17T16:04:01;14.20;98.30
8988;DHT22;4529;51.360;12.474;2023-03-17T16:09:04;14.10;98.40
8988;DHT22;4529;51.360;12.474;2023-03-17T16:14:11;14.00;98.70
8988;DHT22;4529;51.360;12.474;2023-03-17T16:19:17;13.90;98.70
8988;DHT22;4529;51.360;12.474;2023-03-17T16:24:24;13.90;99.50
8988;DHT22;4529;51.360;12.474;2023-03-17T16:29:28;13.80;99.80
8988;DHT22;4529;51.360;12.474;2023-03-17T16:34:30;13.70;99.70
8988;DHT22;4529;51.360;12.474;2023-03-17T16:39:34;13.90;99.40
8988;DHT22;4529;51.360;12.474;2023-03-17T16:44:37;14.00;99.40
8988;DHT22;4529;51.360;12.474;2023-03-17T16:49:41;14.00;99.80
8988;DHT22;4529;51.360;12.474;2023-03-17T16:54:44;14.00;99.70
8988;DHT22;4529;51.360;12.474;2023-03-17T16:59:47;13.90;98.90
8988;DHT22;4529;51.360;12.474;2023-03-17T17:04:51;13.90;98.90
8988;DHT22;4529;51.360;12.474;2023-03-17T17:10:04;13.90;98.90
8988;DHT22;4529;51.360;12.474;2023-03-17T17:15:07;13.90;98.90
8988;DHT22;4529;51.360;12.474;2023-03-17T17:20:21;13.80;99.30
8988;DHT22;4529;51.360;12.474;2023-03-17T17:25:24;13.70;99.20
8988;DHT22;4529;51.360;12.474;2023-03-17T17:30:27;13.70;99.50
8988;DHT22;4529;51.360;12.474;2023-03-17T17:35:31;13.60;99.30
8988;DHT22;4529;51.360;12.474;2023-03-17T17:40:34;13.40;99.30
8988;DHT22;4529;51.360;12.474;2023-03-17T17:45:38;13.20;99.30
8988;DHT22;4529;51.360;12.474;2023-03-17T17:50:43;13.10;99.70
8988;DHT22;4529;51.360;12.474;2023-03-17T17:55:47;13.00;99.40
8988;DHT22;4529;51.360;12.474;2023-03-17T18:00:51;12.70;99.90
8988;DHT22;4529;51.360;12.474;2023-03-17T18:05:55;12.40;99.90
8988;DHT22;4529;51.360;12.474;2023-03-17T18:10:59;12.10;99.90
8988;DHT22;4529;51.360;12.474;2023-03-17T18:16:04;11.90;99.90
8988;DHT22;4529;51.360;12.474;2023-03-17T18:21:07;11.90;99.90
8988;DHT22;4529;51.360;12.474;2023-03-17T18:26:12;11.70;99.90
8988;DHT22;4529;51.360;12.474;2023-03-17T18:31:22;11.60;99.90
8988;DHT22;4529;51.360;12.474;2023-03-17T18:36:24;11.60;99.90
8988;DHT22;4529;51.360;12.474;2023-03-17T18:41:28;11.50;99.90
8988;DHT22;4529;51.360;12.474;2023-03-17T18:46:32;11.50;99.90
8988;DHT22;4529;51.360;12.474;2023-03-17T18:51:35;11.30;99.90
8988;DHT22;4529;51.360;12.474;2023-03-17T18:56:39;11.20;99.90
8988;DHT22;4529;51.360;12.474;2023-03-17T19:01:42;11.20;99.90
8988;DHT22;4529;51.360;12.474;2023-03-17T19:06:46;11.10;99.90
8988;DHT22;4529;51.360;12.474;2023-03-17T19:11:50;11.00;99.90
8988;DHT22;4529;51.360;12.474;2023-03-17T19:16:54;11.00;99.90
8988;DHT22;4529;51.360;12.474;2023-03-17T19:21:59;11.00;99.90
8988;DHT22;4529;51.360;12.474;2023-03-17T19:27:02;11.00;99.90
8988;DHT22;4529;51.360;12.474;2023-03-17T19:32:07;11.00;99.90
8988;DHT22;4529;51.360;12.474;2023-03-17T19:37:10;11.10;99.90
8988;DHT22;4529;51.360;12.474;2023-03-17T19:42:14;11.10;99.90
8988;DHT22;4529;51.360;12.474;2023-03-17T19:47:17;11.20;99.90
8988;DHT22;4529;51.360;12.474;2023-03-17T19:52:22;11.30;99.90
8988;DHT22;4529;51.360;12.474;2023-03-17T19:57:25;11.30;99.90
8988;DHT22;4529;51.360;12.474;2023-03-17T20:02:29;11.40;99.90
8988;DHT22;4529;51.360;12.474;2023-03-17T20:07:32;11.40;99.90
8988;DHT22;4529;51.360;12.474;2023-03-17T20:12:35;11.40;99.90
8988;DHT22;4529;51.360;12.474;2023-03-17T20:17:39;11.40;99.90
8988;DHT22;4529;51.360;12.474;2023-03-17T20:22:44;11.20;99.90
8988;DHT22;4529;51.360;12.474;2023-03-17T20:27:47;11.20;99.90
8988;DHT22;4529;51.360;12.474;2023-03-17T20:32:51;11.10;99.90
8988;DHT22;4529;51.360;12.474;2023-03-17T20:37:55;10.80;99.90
8988;DHT22;4529;51.360;12.474;2023-03-17T20:42:59;10.70;99.90
8988;DHT22;4529;51.360;12.474;2023-03-17T20:48:03;10.60;99.90
8988;DHT22;4529;51.360;12.474;2023-03-17T20:53:06;10.60;99.90
8988;DHT22;4529;51.360;12.474;2023-03-17T20:58:10;10.50;99.90
8988;DHT22;4529;51.360;12.474;2023-03-17T21:03:14;10.50;99.90
8988;DHT22;4529;51.360;12.474;2023-03-17T21:08:17;10.50;99.90
8988;DHT22;4529;51.360;12.474;2023-03-17T21:13:21;10.40;99.90
8988;DHT22;4529;51.360;12.474;2023-03-17T21:18:25;10.30;99.90
8988;DHT22;4529;51.360;12.474;2023-03-17T21:23:28;10.20;99.90
8988;DHT22;4529;51.360;12.474;2023-03-17T21:28:32;10.20;99.90
8988;DHT22;4529;51.360;12.474;2023-03-17T21:33:36;10.20;99.90
8988;DHT22;4529;51.360;12.474;2023-03-17T21:38:40;10.10;99.90
8988;DHT22;4529;51.360;12.474;2023-03-17T21:43:44;9.90;99.90
8988;DHT22;4529;51.360;12.474;2023-03-17T21:48:48;9.80;99.90
8988;DHT22;4529;51.360;12.474;2023-03-17T21:53:53;9.60;99.90
8988;DHT22;4529;51.360;12.474;2023-03-17T21:58:57;9.60;99.90
8988;DHT22;4529;51.360;12.474;2023-03-17T22:04:00;9.50;99.90
8988;DHT22;4529;51.360;12.474;2023-03-17T22:09:05;9.40;99.90
8988;DHT22;4529;51.360;12.474;2023-03-17T22:14:09;9.40;99.90
8988;DHT22;4529;51.360;12.474;2023-03-17T22:19:12;9.50;99.90
8988;DHT22;4529;51.360;12.474;2023-03-17T22:24:15;9.70;99.90
8988;DHT22;4529;51.360;12.474;2023-03-17T22:29:18;9.80;99.90
8988;DHT22;4529;51.360;12.474;2023-03-17T22:34:22;9.70;99.90
8988;DHT22;4529;51.360;12.474;2023-03-17T22:39:26;9.50;99.90
8988;DHT22;4529;51.360;12.474;2023-03-17T22:44:30;9.40;99.90
8988;DHT22;4529;51.360;12.474;2023-03-17T22:49:34;9.30;99.90
8988;DHT22;4529;51.360;12.474;2023-03-17T22:54:38;9.30;99.90
8988;DHT22;4529;51.360;12.474;2023-03-17T22:59:41;9.30;99.90
8988;DHT22;4529;51.360;12.474;2023-03-17T23:04:45;9.20;99.90
8988;DHT22;4529;51.360;12.474;2023-03-17T23:09:48;9.20;99.90
8988;DHT22;4529;51.360;12.474;2023-03-17T23:14:51;9.10;99.90
8988;DHT22;4529;51.360;12.474;2023-03-17T23:19:56;8.90;99.90
8988;DHT22;4529;51.360;12.474;2023-03-17T23:25:00;8.90;99.90
8988;DHT22;4529;51.360;12.474;2023-03-17T23:30:04;8.90;99.90
8988;DHT22;4529;51.360;12.474;2023-03-17T23:35:07;8.80;99.90
8988;DHT22;4529;51.360;12.474;2023-03-17T23:40:11;8.80;99.90
8988;DHT22;4529;51.360;12.474;2023-03-17T23:45:15;8.80;99.90
8988;DHT22;4529;51.360;12.474;2023-03-17T23:50:19;8.80;99.90
8988;DHT22;4529;51.360;12.474;2023-03-17T23:55:22;8.80;99.90
